createdAt,value
2024-01-30T00:02:20.325Z,2.37
2024-01-30T00:04:48.026Z,2.87
2024-01-30T00:07:15.790Z,2.20
2024-01-30T00:09:43.650Z,2.20
2024-01-30T00:12:12.789Z,2.53
2024-01-30T00:14:40.538Z,2.87
2024-01-30T00:17:08.191Z,2.50
2024-01-30T00:19:36.093Z,2.07
2024-01-30T00:22:03.955Z,2.47
2024-01-30T00:24:31.652Z,2.83
2024-01-30T00:26:59.340Z,3.10
2024-01-30T00:29:31.490Z,3.10
2024-01-30T00:31:59.253Z,2.47
2024-01-30T00:34:26.993Z,2.57
2024-01-30T00:36:55.017Z,3.23
2024-01-30T00:39:22.903Z,2.33
2024-01-30T00:41:50.636Z,2.57
2024-01-30T00:44:18.353Z,2.57
2024-01-30T00:46:47.768Z,2.60
2024-01-30T00:49:15.493Z,2.47
2024-01-30T00:51:43.339Z,2.47
2024-01-30T00:54:11.185Z,2.10
2024-01-30T00:56:38.834Z,3.10
2024-01-30T00:59:06.483Z,2.60
2024-01-30T01:01:34.352Z,2.83
2024-01-30T01:04:03.632Z,2.40
2024-01-30T01:06:31.432Z,2.47
2024-01-30T01:09:00.464Z,2.63
2024-01-30T01:11:29.233Z,2.43
2024-01-30T01:13:56.953Z,2.27
2024-01-30T01:16:24.600Z,2.40
2024-01-30T01:18:52.443Z,2.47
2024-01-30T01:21:21.565Z,2.90
2024-01-30T01:23:49.217Z,2.83
2024-01-30T01:26:16.917Z,2.60
2024-01-30T01:28:44.561Z,2.97
2024-01-30T01:31:12.247Z,2.47
2024-01-30T01:33:40.431Z,2.33
2024-01-30T01:36:08.662Z,2.73
2024-01-30T01:38:37.724Z,3.20
2024-01-30T01:41:05.709Z,2.30
2024-01-30T01:43:33.417Z,2.73
2024-01-30T01:46:02.569Z,2.57
2024-01-30T01:48:30.961Z,2.87
2024-01-30T01:50:59.226Z,2.70
2024-01-30T01:53:28.981Z,2.57
2024-01-30T01:55:59.058Z,3.10
2024-01-30T01:58:31.076Z,2.53
2024-01-30T02:01:00.200Z,2.70
2024-01-30T02:03:28.112Z,3.40
2024-01-30T02:05:57.199Z,3.27
2024-01-30T02:08:25.532Z,2.83
2024-01-30T02:10:53.297Z,2.60
2024-01-30T02:13:23.529Z,2.90
2024-01-30T02:15:52.467Z,3.23
2024-01-30T02:18:22.282Z,2.63
2024-01-30T02:20:49.973Z,2.57
2024-01-30T02:23:19.012Z,2.53
2024-01-30T02:25:46.658Z,2.73
2024-01-30T02:28:14.618Z,2.37
2024-01-30T02:30:42.765Z,2.50
2024-01-30T02:33:10.524Z,3.00
2024-01-30T02:35:38.290Z,2.60
2024-01-30T02:38:06.548Z,3.07
2024-01-30T02:40:35.559Z,2.80
2024-01-30T02:43:04.315Z,3.00
2024-01-30T02:45:32.071Z,2.10
2024-01-30T02:47:59.776Z,3.17
2024-01-30T02:50:27.530Z,2.60
2024-01-30T02:52:55.290Z,3.00
2024-01-30T02:55:23.078Z,2.70
2024-01-30T02:57:52.303Z,2.60
2024-01-30T03:00:21.793Z,2.67
2024-01-30T03:02:49.475Z,2.37
2024-01-30T03:05:17.151Z,2.53
2024-01-30T03:07:44.964Z,2.30
2024-01-30T03:10:12.682Z,2.50
2024-01-30T03:12:40.378Z,2.43
2024-01-30T03:15:11.942Z,2.20
2024-01-30T03:17:39.824Z,2.43
2024-01-30T03:20:08.626Z,2.03
2024-01-30T03:22:36.743Z,2.77
2024-01-30T03:25:04.950Z,2.93
2024-01-30T03:27:32.626Z,2.63
2024-01-30T03:30:00.433Z,2.13
2024-01-30T03:32:29.552Z,2.73
2024-01-30T03:34:57.392Z,2.80
2024-01-30T03:37:25.293Z,2.83
2024-01-30T03:39:53.068Z,2.80
2024-01-30T03:42:20.974Z,2.87
2024-01-30T03:44:48.680Z,3.13
2024-01-30T03:47:16.426Z,2.20
2024-01-30T03:49:45.545Z,2.17
2024-01-30T03:52:13.315Z,2.57
2024-01-30T03:54:41.170Z,2.20
2024-01-30T03:57:08.914Z,2.00
2024-01-30T03:59:36.619Z,2.40
2024-01-30T04:02:05.556Z,2.33
2024-01-30T04:04:33.607Z,1.90
2024-01-30T04:07:02.706Z,2.37
2024-01-30T04:09:30.368Z,2.03
2024-01-30T04:11:58.134Z,2.13
2024-01-30T04:14:25.761Z,2.20
2024-01-30T04:16:53.503Z,3.10
2024-01-30T04:19:21.299Z,1.90
2024-01-30T04:21:49.116Z,2.20
2024-01-30T04:24:19.714Z,2.90
2024-01-30T04:26:46.448Z,2.10
2024-01-30T04:29:14.201Z,2.13
2024-01-30T04:31:42.081Z,2.33
2024-01-30T04:34:09.800Z,2.03
2024-01-30T04:36:37.688Z,1.70
2024-01-30T04:39:05.452Z,2.03
2024-01-30T04:41:34.984Z,1.80
2024-01-30T04:44:02.850Z,3.07
2024-01-30T04:46:30.519Z,2.40
2024-01-30T04:48:58.484Z,2.30
2024-01-30T04:51:26.222Z,2.07
2024-01-30T04:53:53.890Z,2.33
2024-01-30T04:56:21.627Z,1.83
2024-01-30T04:58:50.698Z,1.97
2024-01-30T05:01:18.753Z,2.87
2024-01-30T05:03:46.834Z,2.63
2024-01-30T05:06:14.643Z,2.03
2024-01-30T05:08:42.397Z,1.97
2024-01-30T05:11:10.603Z,3.23
2024-01-30T05:13:38.323Z,2.33
2024-01-30T05:16:07.812Z,2.37
2024-01-30T05:18:35.700Z,2.10
2024-01-30T05:21:04.669Z,2.00
2024-01-30T05:23:32.513Z,2.50
2024-01-30T05:26:01.975Z,2.27
2024-01-30T05:28:29.893Z,2.23
2024-01-30T05:30:57.941Z,2.20
2024-01-30T05:33:27.287Z,2.30
2024-01-30T05:35:55.491Z,1.97
2024-01-30T05:38:23.213Z,2.10
2024-01-30T05:40:50.942Z,2.67
2024-01-30T05:43:18.629Z,2.20
2024-01-30T05:45:46.405Z,2.07
2024-01-30T05:48:14.072Z,1.47
2024-01-30T05:50:43.319Z,2.10
2024-01-30T05:53:11.027Z,2.13
2024-01-30T05:55:38.855Z,2.87
2024-01-30T05:58:06.573Z,1.97
2024-01-30T06:00:34.325Z,2.07
2024-01-30T06:03:02.034Z,2.73
2024-01-30T06:05:29.829Z,2.00
2024-01-30T06:07:59.000Z,2.13
2024-01-30T06:10:26.869Z,1.90
2024-01-30T06:12:54.650Z,2.03
2024-01-30T06:15:22.313Z,2.10
2024-01-30T06:17:50.031Z,2.00
2024-01-30T06:20:18.239Z,2.07
2024-01-30T06:22:45.931Z,1.60
2024-01-30T06:25:15.194Z,2.80
2024-01-30T06:27:42.941Z,2.40
2024-01-30T06:30:11.702Z,1.40
2024-01-30T06:32:39.689Z,1.67
2024-01-30T06:35:08.228Z,1.70
2024-01-30T06:37:35.975Z,2.10
2024-01-30T06:40:03.784Z,2.07
2024-01-30T06:42:32.929Z,1.70
2024-01-30T06:45:00.621Z,1.97
2024-01-30T06:47:29.749Z,1.53
2024-01-30T06:49:57.636Z,1.90
2024-01-30T06:52:25.465Z,2.13
2024-01-30T06:54:53.241Z,1.73
2024-01-30T06:57:21.107Z,2.27
2024-01-30T06:59:50.161Z,2.03
2024-01-30T07:02:18.369Z,2.03
2024-01-30T07:04:47.533Z,2.13
2024-01-30T07:07:16.132Z,2.27
2024-01-30T07:09:44.097Z,2.43
2024-01-30T07:12:11.809Z,2.30
2024-01-30T07:14:39.489Z,2.00
2024-01-30T07:17:09.734Z,2.27
2024-01-30T07:19:37.575Z,1.83
2024-01-30T07:22:05.642Z,1.73
2024-01-30T07:24:33.317Z,1.73
2024-01-30T07:27:01.012Z,2.13
2024-01-30T07:29:28.742Z,1.93
2024-01-30T07:31:56.489Z,2.53
2024-01-30T07:34:25.627Z,2.30
2024-01-30T07:36:56.356Z,2.37
2024-01-30T07:39:24.199Z,2.30
2024-01-30T07:41:51.909Z,2.77
2024-01-30T07:44:19.709Z,2.13
2024-01-30T07:46:47.377Z,2.53
2024-01-30T07:49:15.503Z,2.83
2024-01-30T07:51:46.170Z,2.00
2024-01-30T07:54:14.166Z,2.40
2024-01-30T07:56:42.811Z,2.53
2024-01-30T07:59:11.912Z,2.60
2024-01-30T08:01:39.734Z,2.27
2024-01-30T08:04:07.529Z,2.43
2024-01-30T08:06:35.500Z,2.40
2024-01-30T08:09:05.903Z,2.53
2024-01-30T08:11:33.617Z,2.57
2024-01-30T08:14:01.274Z,2.27
2024-01-30T08:16:29.068Z,2.17
2024-01-30T08:18:58.965Z,3.00
2024-01-30T08:21:26.794Z,2.53
2024-01-30T08:23:54.812Z,2.23
2024-01-30T08:26:23.858Z,2.23
2024-01-30T08:28:52.923Z,2.37
2024-01-30T08:31:20.726Z,2.10
2024-01-30T08:33:50.312Z,2.57
2024-01-30T08:36:19.285Z,2.60
2024-01-30T08:38:46.949Z,2.67
2024-01-30T08:41:14.699Z,2.50
2024-01-30T08:43:45.743Z,2.93
2024-01-30T08:46:14.151Z,2.33
2024-01-30T08:48:41.943Z,2.83
2024-01-30T08:51:10.160Z,3.20
2024-01-30T08:53:37.897Z,2.00
2024-01-30T08:56:06.164Z,2.43
2024-01-30T08:58:34.009Z,2.73
2024-01-30T09:01:05.069Z,1.80
2024-01-30T09:03:32.924Z,2.50
2024-01-30T09:06:00.597Z,1.70
2024-01-30T09:08:28.492Z,1.93
2024-01-30T09:10:56.406Z,2.40
2024-01-30T09:13:24.194Z,2.40
2024-01-30T09:15:51.957Z,2.30
2024-01-30T09:18:21.163Z,1.90
2024-01-30T09:20:48.894Z,2.37
2024-01-30T09:23:16.831Z,1.80
2024-01-30T09:25:44.550Z,2.07
2024-01-30T09:28:12.278Z,1.87
2024-01-30T09:30:40.037Z,2.13
2024-01-30T09:33:08.854Z,1.63
2024-01-30T09:35:38.290Z,1.57
2024-01-30T09:38:06.212Z,2.37
2024-01-30T09:40:34.199Z,2.63
2024-01-30T09:43:02.191Z,2.10
2024-01-30T09:45:29.934Z,2.33
2024-01-30T09:47:58.134Z,2.03
2024-01-30T09:50:25.876Z,2.47
2024-01-30T09:52:57.353Z,2.47
2024-01-30T09:55:25.978Z,2.07
2024-01-30T09:57:53.707Z,2.13
2024-01-30T10:00:23.902Z,2.10
2024-01-30T10:02:51.861Z,1.90
2024-01-30T10:05:21.590Z,1.50
2024-01-30T10:07:57.146Z,2.30
2024-01-30T10:10:25.685Z,2.30
2024-01-30T10:12:53.691Z,2.50
2024-01-30T10:15:21.651Z,2.33
2024-01-30T10:17:49.448Z,1.97
2024-01-30T10:20:18.665Z,1.67
2024-01-30T10:22:47.252Z,2.10
2024-01-30T10:25:17.540Z,1.90
2024-01-30T10:27:45.297Z,1.67
2024-01-30T10:30:13.309Z,2.00
2024-01-30T10:32:41.024Z,2.17
2024-01-30T10:35:10.013Z,2.10
2024-01-30T10:37:37.932Z,2.17
2024-01-30T10:40:07.327Z,2.27
2024-01-30T10:42:39.005Z,2.13
2024-01-30T10:45:09.402Z,1.90
2024-01-30T10:47:38.946Z,2.28
2024-01-30T10:50:08.873Z,2.03
2024-01-30T10:52:36.889Z,2.03
2024-01-30T10:55:08.446Z,2.67
2024-01-30T10:57:38.007Z,2.28
2024-01-30T11:00:11.469Z,1.90
2024-01-30T11:02:42.123Z,1.92
2024-01-30T11:05:10.717Z,2.57
2024-01-30T11:07:40.792Z,2.00
2024-01-30T11:10:10.561Z,1.90
2024-01-30T11:12:44.483Z,2.20
2024-01-30T11:15:16.664Z,2.33
2024-01-30T11:17:46.213Z,3.05
2024-01-30T11:20:16.748Z,2.27
2024-01-30T11:22:46.927Z,2.40
2024-01-30T11:25:15.876Z,1.92
2024-01-30T11:27:45.555Z,1.40
2024-01-30T11:30:13.747Z,1.63
2024-01-30T11:32:41.479Z,2.60
2024-01-30T11:35:13.275Z,1.77
2024-01-30T11:37:41.759Z,2.47
2024-01-30T11:40:11.760Z,2.05
2024-01-30T11:42:40.722Z,1.53
2024-01-30T11:45:10.250Z,2.10
2024-01-30T11:47:42.282Z,2.03
2024-01-30T11:50:12.326Z,2.60
2024-01-30T11:52:40.392Z,1.90
2024-01-30T11:55:09.314Z,2.07
2024-01-30T11:57:38.107Z,2.58
2024-01-30T12:00:11.021Z,2.60
2024-01-30T12:02:40.264Z,2.75
2024-01-30T12:05:08.678Z,2.23
2024-01-30T12:07:36.483Z,1.80
2024-01-30T12:10:06.665Z,1.92
2024-01-30T12:12:34.626Z,2.10
2024-01-30T12:15:02.463Z,2.22
2024-01-30T12:17:31.750Z,2.72
2024-01-30T12:20:08.124Z,2.85
2024-01-30T12:22:39.297Z,2.20
2024-01-30T12:25:07.683Z,1.85
2024-01-30T12:27:35.521Z,2.42
2024-01-30T12:30:03.450Z,2.22
2024-01-30T12:32:31.219Z,2.07
2024-01-30T12:35:01.940Z,2.53
2024-01-30T12:37:32.400Z,1.97
2024-01-30T12:40:00.301Z,2.07
2024-01-30T12:42:29.157Z,3.47
2024-01-30T12:44:59.075Z,3.22
2024-01-30T12:47:27.194Z,3.00
2024-01-30T12:49:58.155Z,2.87
2024-01-30T12:52:26.317Z,2.80
2024-01-30T12:54:55.486Z,2.35
2024-01-30T12:57:23.429Z,2.80
2024-01-30T12:59:51.150Z,2.27
2024-01-30T13:02:19.048Z,2.77
2024-01-30T13:04:48.939Z,2.28
2024-01-30T13:07:18.175Z,2.40
2024-01-30T13:09:45.891Z,2.63
2024-01-30T13:12:15.117Z,2.43
2024-01-30T13:14:42.772Z,2.25
2024-01-30T13:17:10.722Z,2.40
2024-01-30T13:19:38.531Z,2.70
2024-01-30T13:22:06.704Z,2.55
2024-01-30T13:24:34.394Z,2.42
2024-01-30T13:27:02.094Z,3.10
2024-01-30T13:29:31.209Z,2.43
2024-01-30T13:31:58.925Z,2.33
2024-01-30T13:34:27.484Z,2.23
2024-01-30T13:36:55.333Z,2.27
2024-01-30T13:39:23.850Z,2.78
2024-01-30T13:41:53.310Z,2.47
2024-01-30T13:44:21.999Z,3.10
2024-01-30T13:46:51.425Z,3.10
2024-01-30T13:49:19.157Z,1.93
2024-01-30T13:51:47.014Z,2.40
2024-01-30T13:54:17.059Z,2.30
2024-01-30T13:56:45.342Z,2.90
2024-01-30T13:59:13.151Z,2.43
2024-01-30T14:01:40.945Z,2.43
2024-01-30T14:04:12.071Z,2.53
2024-01-30T14:06:49.956Z,2.80
2024-01-30T14:09:22.286Z,2.77
2024-01-30T14:11:50.040Z,2.43
2024-01-30T14:14:17.677Z,2.13
2024-01-30T14:16:45.546Z,2.60
2024-01-30T14:19:14.649Z,2.05
2024-01-30T14:21:43.217Z,3.13
2024-01-30T14:24:12.289Z,2.95
2024-01-30T14:26:40.063Z,3.07
2024-01-30T14:29:08.233Z,3.17
2024-01-30T14:31:36.000Z,3.03
2024-01-30T14:34:03.992Z,2.77
2024-01-30T14:36:33.291Z,3.13
2024-01-30T14:39:01.034Z,2.50
2024-01-30T14:41:29.575Z,2.57
2024-01-30T14:43:57.270Z,2.50
2024-01-30T14:46:25.144Z,2.83
2024-01-30T14:48:53.092Z,2.67
2024-01-30T14:51:21.197Z,2.87
2024-01-30T14:53:50.215Z,3.30
2024-01-30T14:56:18.800Z,3.20
2024-01-30T14:58:46.561Z,2.70
2024-01-30T15:01:14.899Z,2.87
2024-01-30T15:03:44.445Z,3.10
2024-01-30T15:06:12.142Z,2.80
2024-01-30T15:08:40.142Z,3.30
2024-01-30T15:11:09.210Z,3.30
2024-01-30T15:13:36.908Z,3.30
2024-01-30T15:16:06.865Z,2.90
2024-01-30T15:18:34.709Z,3.50
2024-01-30T15:21:03.304Z,3.57
2024-01-30T15:23:31.083Z,2.50
2024-01-30T15:25:58.973Z,2.80
2024-01-30T15:28:38.870Z,3.10
2024-01-30T15:31:08.076Z,3.80
2024-01-30T15:33:36.062Z,3.37
2024-01-30T15:36:04.843Z,2.73
2024-01-30T15:38:32.616Z,2.53
2024-01-30T15:41:01.887Z,2.20
2024-01-30T15:43:29.818Z,2.60
2024-01-30T15:45:59.196Z,2.20
2024-01-30T15:48:27.084Z,1.63
2024-01-30T15:50:55.142Z,1.90
2024-01-30T15:53:23.247Z,1.73
2024-01-30T15:55:50.974Z,1.80
2024-01-30T15:58:18.666Z,1.60
2024-01-30T16:00:46.540Z,1.73
2024-01-30T16:03:15.756Z,1.43
2024-01-30T16:05:43.791Z,1.97
2024-01-30T16:08:11.516Z,1.17
2024-01-30T16:10:39.380Z,1.03
2024-01-30T16:13:07.118Z,0.90
2024-01-30T16:15:34.897Z,0.97
2024-01-30T16:18:03.285Z,0.80
2024-01-30T16:20:32.400Z,0.70
2024-01-30T16:23:00.071Z,0.93
2024-01-30T16:25:27.852Z,0.40
2024-01-30T16:27:55.649Z,0.80
2024-01-30T16:30:23.329Z,0.70
2024-01-30T16:32:52.316Z,0.83
2024-01-30T16:35:20.142Z,0.70
2024-01-30T16:37:49.170Z,0.77
2024-01-30T16:40:17.243Z,0.60
2024-01-30T16:42:44.912Z,0.67
2024-01-30T16:45:12.585Z,0.90
2024-01-30T16:47:40.323Z,0.53
2024-01-30T16:50:08.534Z,0.50
2024-01-30T16:52:36.320Z,0.53
2024-01-30T16:55:06.210Z,1.20
2024-01-30T16:57:36.751Z,0.50
2024-01-30T17:00:06.925Z,0.90
2024-01-30T17:02:34.629Z,0.80
2024-01-30T17:05:11.363Z,1.30
2024-01-30T17:07:44.116Z,0.83
2024-01-30T17:10:14.420Z,0.70
2024-01-30T17:12:42.148Z,0.87
2024-01-30T17:15:10.731Z,0.50
2024-01-30T17:17:38.437Z,0.70
2024-01-30T17:20:08.056Z,0.40
2024-01-30T17:22:36.200Z,0.40
2024-01-30T17:25:04.540Z,0.60
2024-01-30T17:27:33.947Z,0.67
2024-01-30T17:30:01.854Z,0.70
2024-01-30T17:32:29.588Z,0.73
2024-01-30T17:34:57.384Z,0.87
2024-01-30T17:37:25.213Z,0.90
2024-01-30T17:39:53.097Z,0.93
2024-01-30T17:42:22.849Z,0.93
2024-01-30T17:44:52.283Z,0.90
2024-01-30T17:47:20.055Z,0.97
2024-01-30T17:49:47.762Z,0.90
2024-01-30T17:52:16.431Z,1.37
2024-01-30T17:54:44.109Z,0.87
2024-01-30T17:57:12.025Z,1.23
2024-01-30T17:59:40.100Z,0.93
2024-01-30T18:02:09.530Z,1.00
2024-01-30T18:04:40.508Z,0.87
2024-01-30T18:07:08.694Z,1.43
2024-01-30T18:09:36.630Z,1.27
2024-01-30T18:12:04.685Z,0.90
2024-01-30T18:14:32.400Z,1.60
2024-01-30T18:17:00.258Z,1.83
2024-01-30T18:19:29.519Z,0.83
2024-01-30T18:21:57.294Z,0.87
2024-01-30T18:26:53.839Z,0.90
2024-01-30T18:29:21.487Z,0.77
2024-01-30T18:31:49.236Z,1.10
2024-01-30T18:34:17.112Z,0.80
2024-01-30T18:36:46.274Z,0.77
2024-01-30T18:39:14.612Z,1.10
2024-01-30T18:41:42.356Z,0.93
2024-01-30T18:44:10.012Z,1.27
2024-01-30T18:46:38.160Z,1.13
2024-01-30T18:49:06.071Z,0.77
2024-01-30T18:51:34.001Z,0.90
2024-01-30T18:54:03.036Z,0.93
2024-01-30T18:56:30.714Z,0.73
2024-01-30T18:58:58.487Z,0.73
2024-01-30T19:01:26.274Z,1.00
2024-01-30T19:03:54.791Z,1.03
2024-01-30T19:06:22.627Z,1.07
2024-01-30T19:08:50.359Z,0.97
2024-01-30T19:11:22.567Z,0.47
2024-01-30T19:13:50.535Z,0.93
2024-01-30T19:16:18.247Z,1.10
2024-01-30T19:18:46.603Z,0.57
2024-01-30T19:21:14.498Z,0.83
2024-01-30T19:23:42.193Z,0.83
2024-01-30T19:26:10.058Z,0.83
2024-01-30T19:28:39.565Z,1.20
2024-01-30T19:31:07.513Z,0.60
2024-01-30T19:33:35.395Z,1.00
2024-01-30T19:36:03.396Z,1.00
2024-01-30T19:38:31.073Z,0.73
2024-01-30T19:40:59.031Z,0.83
2024-01-30T19:43:27.390Z,1.27
2024-01-30T19:45:56.582Z,0.80
2024-01-30T19:48:24.271Z,0.90
2024-01-30T19:50:51.964Z,1.13
2024-01-30T19:53:21.920Z,1.07
2024-01-30T19:55:49.654Z,1.30
2024-01-30T19:58:17.426Z,1.67
2024-01-30T20:00:45.504Z,1.30
2024-01-30T20:03:14.607Z,3.27
2024-01-30T20:05:42.398Z,2.50
2024-01-30T20:08:10.128Z,1.57
2024-01-30T20:10:37.845Z,1.53
2024-01-30T20:13:05.907Z,1.57
2024-01-30T20:15:33.652Z,1.40
2024-01-30T20:18:01.429Z,1.40
2024-01-30T20:20:30.908Z,1.93
2024-01-30T20:22:58.623Z,1.70
2024-01-30T20:25:26.370Z,1.40
2024-01-30T20:27:54.884Z,1.43
2024-01-30T20:30:23.610Z,2.03
2024-01-30T20:32:52.566Z,1.90
2024-01-30T20:35:21.095Z,2.17
2024-01-30T20:37:51.042Z,1.47
2024-01-30T20:40:19.089Z,2.33
2024-01-30T20:42:48.369Z,2.60
2024-01-30T20:45:16.515Z,2.30
2024-01-30T20:47:44.563Z,3.13
2024-01-30T20:50:12.445Z,2.23
2024-01-30T20:52:40.312Z,2.03
2024-01-30T20:55:09.991Z,2.30
2024-01-30T20:57:37.770Z,2.87
2024-01-30T21:00:08.561Z,2.70
2024-01-30T21:02:38.358Z,3.03
2024-01-30T21:05:07.059Z,2.63
2024-01-30T21:07:34.944Z,2.27
2024-01-30T21:10:02.769Z,2.80
2024-01-30T21:12:31.846Z,2.50
2024-01-30T21:14:59.525Z,3.03
2024-01-30T21:17:27.885Z,2.37
2024-01-30T21:19:55.789Z,3.27
2024-01-30T21:22:23.582Z,3.30
2024-01-30T21:24:51.507Z,3.13
2024-01-30T21:27:19.233Z,3.30
2024-01-30T21:29:48.288Z,3.97
2024-01-30T21:32:16.467Z,3.87
2024-01-30T21:34:44.289Z,3.80
2024-01-30T21:37:11.985Z,4.30
2024-01-30T21:39:41.036Z,3.67
2024-01-30T21:42:08.776Z,3.97
2024-01-30T21:44:36.553Z,3.40
2024-01-30T21:47:06.077Z,3.73
2024-01-30T21:49:34.580Z,3.60
2024-01-30T21:52:06.117Z,3.10
2024-01-30T21:54:34.120Z,3.80
2024-01-30T21:57:01.879Z,3.43
2024-01-30T21:59:29.684Z,3.80
2024-01-30T22:01:57.377Z,4.90
2024-01-30T22:04:26.620Z,4.33
2024-01-30T22:06:54.447Z,4.50
2024-01-30T22:09:23.213Z,4.27
2024-01-30T22:11:50.994Z,4.17
2024-01-30T22:14:18.822Z,3.40
2024-01-30T22:16:46.497Z,4.87
2024-01-30T22:19:14.854Z,4.13
2024-01-30T22:21:43.885Z,3.97
2024-01-30T22:24:11.546Z,3.23
2024-01-30T22:26:43.878Z,4.57
2024-01-30T22:29:11.862Z,4.13
2024-01-30T22:31:40.741Z,4.37
2024-01-30T22:34:08.440Z,3.93
2024-01-30T22:36:36.247Z,3.87
2024-01-30T22:39:06.705Z,4.97
2024-01-30T22:41:34.695Z,4.20
2024-01-30T22:44:02.893Z,4.97
2024-01-30T22:46:30.810Z,4.30
2024-01-30T22:48:58.688Z,4.37
2024-01-30T22:51:26.989Z,4.57
2024-01-30T22:53:54.848Z,5.27
2024-01-30T22:56:23.878Z,4.73
2024-01-30T22:58:51.584Z,5.17
2024-01-30T23:01:19.306Z,4.47
2024-01-30T23:03:47.320Z,5.20
2024-01-30T23:06:15.021Z,5.67
2024-01-30T23:08:42.697Z,6.03
2024-01-30T23:11:12.765Z,4.87
2024-01-30T23:13:42.615Z,6.20
2024-01-30T23:16:10.523Z,5.07
2024-01-30T23:18:38.262Z,5.23
2024-01-30T23:21:06.231Z,3.40
2024-01-30T23:23:34.247Z,2.80
2024-01-30T23:26:01.929Z,2.50
2024-01-30T23:28:29.626Z,1.77
2024-01-30T23:30:58.979Z,2.63
2024-01-30T23:33:26.813Z,2.90
2024-01-30T23:35:54.536Z,3.10
2024-01-30T23:38:22.233Z,2.47
2024-01-30T23:40:50.523Z,1.53
2024-01-30T23:43:19.215Z,2.00
2024-01-30T23:45:46.921Z,1.83
2024-01-30T23:48:16.677Z,1.40
2024-01-30T23:50:44.441Z,1.00
2024-01-30T23:53:12.166Z,1.27
2024-01-30T23:55:39.996Z,1.20
2024-01-30T23:58:08.354Z,0.67
